sensor_id;sensor_type;location;lat;lon;timestamp;P1;durP1;ratioP1;P2;durP2;ratioP2
45522;SDS011;31254;51.680;5.394;2023-05-10T00:01:10;18.23;;;12.25;;
45522;SDS011;31254;51.680;5.394;2023-05-10T00:03:37;18.48;;;12.73;;
45522;SDS011;31254;51.680;5.394;2023-05-10T00:06:04;23.92;;;13.05;;
45522;SDS011;31254;51.680;5.394;2023-05-10T00:08:31;22.85;;;14.13;;
45522;SDS011;31254;51.680;5.394;2023-05-10T00:10:59;21.58;;;13.95;;
45522;SDS011;31254;51.680;5.394;2023-05-10T00:13:26;21.10;;;13.65;;
45522;SDS011;31254;51.680;5.394;2023-05-10T00:15:53;19.83;;;13.63;;
45522;SDS011;31254;51.680;5.394;2023-05-10T00:18:23;22.73;;;13.80;;
45522;SDS011;31254;51.680;5.394;2023-05-10T00:20:51;24.52;;;14.50;;
45522;SDS011;31254;51.680;5.394;2023-05-10T00:23:22;23.35;;;14.38;;
45522;SDS011;31254;51.680;5.394;2023-05-10T00:25:52;27.27;;;14.90;;
45522;SDS011;31254;51.680;5.394;2023-05-10T00:28:19;26.38;;;15.25;;
45522;SDS011;31254;51.680;5.394;2023-05-10T00:30:53;26.77;;;15.70;;
45522;SDS011;31254;51.680;5.394;2023-05-10T00:33:20;28.08;;;15.18;;
45522;SDS011;31254;51.680;5.394;2023-05-10T00:35:47;28.20;;;15.27;;
45522;SDS011;31254;51.680;5.394;2023-05-10T00:38:17;29.95;;;15.02;;
45522;SDS011;31254;51.680;5.394;2023-05-10T00:40:43;27.10;;;14.93;;
45522;SDS011;31254;51.680;5.394;2023-05-10T00:43:10;26.08;;;14.48;;
45522;SDS011;31254;51.680;5.394;2023-05-10T00:45:37;25.35;;;14.50;;
45522;SDS011;31254;51.680;5.394;2023-05-10T00:48:07;25.95;;;14.38;;
45522;SDS011;31254;51.680;5.394;2023-05-10T00:50:35;27.20;;;14.50;;
45522;SDS011;31254;51.680;5.394;2023-05-10T00:53:02;28.33;;;15.02;;
45522;SDS011;31254;51.680;5.394;2023-05-10T00:55:31;28.48;;;14.75;;
45522;SDS011;31254;51.680;5.394;2023-05-10T00:58:01;31.25;;;15.57;;
45522;SDS011;31254;51.680;5.394;2023-05-10T01:00:28;27.85;;;15.57;;
45522;SDS011;31254;51.680;5.394;2023-05-10T01:02:55;32.75;;;15.57;;
45522;SDS011;31254;51.680;5.394;2023-05-10T01:05:25;34.55;;;15.95;;
45522;SDS011;31254;51.680;5.394;2023-05-10T01:07:53;28.00;;;15.07;;
45522;SDS011;31254;51.680;5.394;2023-05-10T01:10:20;31.30;;;15.80;;
45522;SDS011;31254;51.680;5.394;2023-05-10T01:12:47;30.23;;;15.52;;
45522;SDS011;31254;51.680;5.394;2023-05-10T01:15:14;33.17;;;15.85;;
45522;SDS011;31254;51.680;5.394;2023-05-10T01:17:45;29.15;;;14.98;;
45522;SDS011;31254;51.680;5.394;2023-05-10T01:20:13;31.23;;;15.90;;
45522;SDS011;31254;51.680;5.394;2023-05-10T01:28:08;33.88;;;16.52;;
45522;SDS011;31254;51.680;5.394;2023-05-10T01:33:59;31.08;;;15.82;;
45522;SDS011;31254;51.680;5.394;2023-05-10T01:36:50;28.67;;;15.45;;
45522;SDS011;31254;51.680;5.394;2023-05-10T01:39:25;36.65;;;16.65;;
45522;SDS011;31254;51.680;5.394;2023-05-10T01:42:07;27.50;;;15.10;;
45522;SDS011;31254;51.680;5.394;2023-05-10T01:47:29;35.28;;;16.27;;
45522;SDS011;31254;51.680;5.394;2023-05-10T01:50:04;33.28;;;16.30;;
45522;SDS011;31254;51.680;5.394;2023-05-10T01:52:38;33.10;;;15.70;;
45522;SDS011;31254;51.680;5.394;2023-05-10T01:55:09;32.58;;;16.67;;
45522;SDS011;31254;51.680;5.394;2023-05-10T01:57:40;29.02;;;16.98;;
45522;SDS011;31254;51.680;5.394;2023-05-10T02:00:10;30.08;;;16.48;;
45522;SDS011;31254;51.680;5.394;2023-05-10T02:02:39;34.95;;;16.85;;
45522;SDS011;31254;51.680;5.394;2023-05-10T02:05:08;32.83;;;16.52;;
45522;SDS011;31254;51.680;5.394;2023-05-10T02:07:39;28.48;;;16.35;;
45522;SDS011;31254;51.680;5.394;2023-05-10T02:10:08;33.17;;;16.90;;
45522;SDS011;31254;51.680;5.394;2023-05-10T02:12:41;32.97;;;17.08;;
45522;SDS011;31254;51.680;5.394;2023-05-10T02:15:10;32.83;;;17.63;;
45522;SDS011;31254;51.680;5.394;2023-05-10T02:17:40;32.03;;;18.15;;
45522;SDS011;31254;51.680;5.394;2023-05-10T02:20:08;37.45;;;18.98;;
45522;SDS011;31254;51.680;5.394;2023-05-10T02:22:37;31.73;;;19.45;;
45522;SDS011;31254;51.680;5.394;2023-05-10T02:25:06;40.90;;;20.67;;
45522;SDS011;31254;51.680;5.394;2023-05-10T02:27:35;37.95;;;20.63;;
45522;SDS011;31254;51.680;5.394;2023-05-10T02:30:03;33.78;;;20.00;;
45522;SDS011;31254;51.680;5.394;2023-05-10T02:32:36;39.38;;;21.50;;
45522;SDS011;31254;51.680;5.394;2023-05-10T02:35:04;43.60;;;22.52;;
45522;SDS011;31254;51.680;5.394;2023-05-10T02:37:32;42.88;;;23.10;;
45522;SDS011;31254;51.680;5.394;2023-05-10T02:40:00;41.22;;;23.35;;
45522;SDS011;31254;51.680;5.394;2023-05-10T02:42:31;42.25;;;23.75;;
45522;SDS011;31254;51.680;5.394;2023-05-10T02:45:10;46.30;;;24.98;;
45522;SDS011;31254;51.680;5.394;2023-05-10T02:47:45;48.17;;;25.83;;
45522;SDS011;31254;51.680;5.394;2023-05-10T02:50:12;45.92;;;24.92;;
45522;SDS011;31254;51.680;5.394;2023-05-10T02:52:43;46.83;;;26.50;;
45522;SDS011;31254;51.680;5.394;2023-05-10T02:55:13;47.80;;;25.85;;
45522;SDS011;31254;51.680;5.394;2023-05-10T02:57:46;47.80;;;24.80;;
45522;SDS011;31254;51.680;5.394;2023-05-10T03:00:17;49.85;;;26.38;;
45522;SDS011;31254;51.680;5.394;2023-05-10T03:02:44;50.13;;;27.17;;
45522;SDS011;31254;51.680;5.394;2023-05-10T03:05:11;47.17;;;26.15;;
45522;SDS011;31254;51.680;5.394;2023-05-10T03:07:39;47.95;;;27.15;;
45522;SDS011;31254;51.680;5.394;2023-05-10T03:10:06;47.83;;;26.83;;
45522;SDS011;31254;51.680;5.394;2023-05-10T03:15:24;53.95;;;28.95;;
45522;SDS011;31254;51.680;5.394;2023-05-10T03:18:15;49.97;;;28.05;;
45522;SDS011;31254;51.680;5.394;2023-05-10T03:20:49;53.38;;;29.98;;
45522;SDS011;31254;51.680;5.394;2023-05-10T03:23:22;55.92;;;29.50;;
45522;SDS011;31254;51.680;5.394;2023-05-10T03:25:51;50.67;;;28.58;;
45522;SDS011;31254;51.680;5.394;2023-05-10T03:28:20;57.03;;;30.42;;
45522;SDS011;31254;51.680;5.394;2023-05-10T03:30:48;60.60;;;29.10;;
45522;SDS011;31254;51.680;5.394;2023-05-10T03:33:16;46.42;;;27.88;;
45522;SDS011;31254;51.680;5.394;2023-05-10T03:35:43;53.85;;;28.98;;
45522;SDS011;31254;51.680;5.394;2023-05-10T03:38:12;48.10;;;27.90;;
45522;SDS011;31254;51.680;5.394;2023-05-10T03:40:39;54.67;;;28.90;;
45522;SDS011;31254;51.680;5.394;2023-05-10T03:43:06;48.40;;;28.00;;
45522;SDS011;31254;51.680;5.394;2023-05-10T03:45:34;52.22;;;27.15;;
45522;SDS011;31254;51.680;5.394;2023-05-10T03:48:03;47.85;;;27.67;;
45522;SDS011;31254;51.680;5.394;2023-05-10T03:50:31;44.17;;;25.58;;
45522;SDS011;31254;51.680;5.394;2023-05-10T03:53:00;48.05;;;27.25;;
45522;SDS011;31254;51.680;5.394;2023-05-10T03:55:28;46.75;;;25.75;;
45522;SDS011;31254;51.680;5.394;2023-05-10T03:58:02;48.67;;;24.45;;
45522;SDS011;31254;51.680;5.394;2023-05-10T04:00:29;44.47;;;23.77;;
45522;SDS011;31254;51.680;5.394;2023-05-10T04:02:56;42.42;;;23.08;;
45522;SDS011;31254;51.680;5.394;2023-05-10T04:05:23;44.75;;;22.67;;
45522;SDS011;31254;51.680;5.394;2023-05-10T04:07:52;44.15;;;23.90;;
45522;SDS011;31254;51.680;5.394;2023-05-10T04:10:19;41.25;;;23.40;;
45522;SDS011;31254;51.680;5.394;2023-05-10T04:12:47;45.00;;;23.92;;
45522;SDS011;31254;51.680;5.394;2023-05-10T04:15:17;43.10;;;22.70;;
45522;SDS011;31254;51.680;5.394;2023-05-10T04:17:43;50.13;;;23.23;;
45522;SDS011;31254;51.680;5.394;2023-05-10T04:20:11;48.00;;;22.70;;
45522;SDS011;31254;51.680;5.394;2023-05-10T04:22:41;47.45;;;24.52;;
45522;SDS011;31254;51.680;5.394;2023-05-10T04:25:08;44.60;;;22.98;;
45522;SDS011;31254;51.680;5.394;2023-05-10T04:27:36;45.25;;;22.45;;
45522;SDS011;31254;51.680;5.394;2023-05-10T04:30:05;43.65;;;24.23;;
45522;SDS011;31254;51.680;5.394;2023-05-10T04:32:35;46.88;;;23.90;;
45522;SDS011;31254;51.680;5.394;2023-05-10T04:35:03;40.83;;;23.25;;
45522;SDS011;31254;51.680;5.394;2023-05-10T04:37:31;45.50;;;23.08;;
45522;SDS011;31254;51.680;5.394;2023-05-10T04:39:58;39.65;;;22.98;;
45522;SDS011;31254;51.680;5.394;2023-05-10T04:42:26;43.35;;;23.33;;
45522;SDS011;31254;51.680;5.394;2023-05-10T04:44:56;42.67;;;21.25;;
45522;SDS011;31254;51.680;5.394;2023-05-10T04:47:22;40.17;;;21.92;;
45522;SDS011;31254;51.680;5.394;2023-05-10T04:49:52;37.33;;;20.25;;
45522;SDS011;31254;51.680;5.394;2023-05-10T04:52:21;43.20;;;21.30;;
45522;SDS011;31254;51.680;5.394;2023-05-10T04:54:48;40.53;;;21.10;;
45522;SDS011;31254;51.680;5.394;2023-05-10T04:57:15;40.63;;;21.20;;
45522;SDS011;31254;51.680;5.394;2023-05-10T04:59:42;36.80;;;20.58;;
45522;SDS011;31254;51.680;5.394;2023-05-10T05:02:09;39.53;;;20.55;;
45522;SDS011;31254;51.680;5.394;2023-05-10T05:04:37;41.17;;;20.38;;
45522;SDS011;31254;51.680;5.394;2023-05-10T05:07:08;39.58;;;20.00;;
45522;SDS011;31254;51.680;5.394;2023-05-10T05:09:35;38.25;;;20.83;;
45522;SDS011;31254;51.680;5.394;2023-05-10T05:12:03;40.28;;;20.42;;
45522;SDS011;31254;51.680;5.394;2023-05-10T05:14:32;39.22;;;20.50;;
45522;SDS011;31254;51.680;5.394;2023-05-10T05:17:00;40.97;;;22.38;;
45522;SDS011;31254;51.680;5.394;2023-05-10T05:19:30;39.25;;;21.08;;
45522;SDS011;31254;51.680;5.394;2023-05-10T05:21:57;41.97;;;22.27;;
45522;SDS011;31254;51.680;5.394;2023-05-10T05:24:24;36.45;;;20.83;;
45522;SDS011;31254;51.680;5.394;2023-05-10T05:26:54;38.25;;;21.65;;
45522;SDS011;31254;51.680;5.394;2023-05-10T05:29:24;34.38;;;21.10;;
45522;SDS011;31254;51.680;5.394;2023-05-10T05:31:53;36.60;;;20.95;;
45522;SDS011;31254;51.680;5.394;2023-05-10T05:34:21;37.00;;;20.67;;
45522;SDS011;31254;51.680;5.394;2023-05-10T05:36:48;37.88;;;21.02;;
45522;SDS011;31254;51.680;5.394;2023-05-10T05:39:18;36.35;;;21.70;;
45522;SDS011;31254;51.680;5.394;2023-05-10T05:41:48;39.65;;;21.33;;
45522;SDS011;31254;51.680;5.394;2023-05-10T05:44:15;37.40;;;22.33;;
45522;SDS011;31254;51.680;5.394;2023-05-10T05:46:45;39.05;;;22.45;;
45522;SDS011;31254;51.680;5.394;2023-05-10T05:49:12;36.67;;;21.25;;
45522;SDS011;31254;51.680;5.394;2023-05-10T05:51:38;38.17;;;22.08;;
45522;SDS011;31254;51.680;5.394;2023-05-10T05:54:05;33.67;;;20.40;;
45522;SDS011;31254;51.680;5.394;2023-05-10T05:56:36;41.63;;;21.42;;
45522;SDS011;31254;51.680;5.394;2023-05-10T05:59:04;35.00;;;19.83;;
45522;SDS011;31254;51.680;5.394;2023-05-10T06:01:31;34.30;;;19.95;;
45522;SDS011;31254;51.680;5.394;2023-05-10T06:04:01;30.05;;;19.48;;
45522;SDS011;31254;51.680;5.394;2023-05-10T06:06:28;39.22;;;21.42;;
45522;SDS011;31254;51.680;5.394;2023-05-10T06:08:55;36.20;;;20.77;;
45522;SDS011;31254;51.680;5.394;2023-05-10T06:11:25;34.47;;;20.55;;
45522;SDS011;31254;51.680;5.394;2023-05-10T06:13:53;34.42;;;19.60;;
45522;SDS011;31254;51.680;5.394;2023-05-10T06:16:20;33.90;;;20.40;;
45522;SDS011;31254;51.680;5.394;2023-05-10T06:18:51;35.15;;;19.88;;
45522;SDS011;31254;51.680;5.394;2023-05-10T06:21:18;33.97;;;19.45;;
45522;SDS011;31254;51.680;5.394;2023-05-10T06:23:48;34.88;;;20.25;;
45522;SDS011;31254;51.680;5.394;2023-05-10T06:26:17;36.55;;;21.00;;
45522;SDS011;31254;51.680;5.394;2023-05-10T06:28:45;29.23;;;18.50;;
45522;SDS011;31254;51.680;5.394;2023-05-10T06:31:12;34.00;;;19.70;;
45522;SDS011;31254;51.680;5.394;2023-05-10T06:33:39;36.00;;;21.45;;
45522;SDS011;31254;51.680;5.394;2023-05-10T06:36:08;40.65;;;21.10;;
45522;SDS011;31254;51.680;5.394;2023-05-10T06:38:35;32.60;;;19.58;;
45522;SDS011;31254;51.680;5.394;2023-05-10T06:41:04;38.17;;;20.08;;
45522;SDS011;31254;51.680;5.394;2023-05-10T06:43:34;37.47;;;20.88;;
45522;SDS011;31254;51.680;5.394;2023-05-10T06:46:01;34.17;;;19.45;;
45522;SDS011;31254;51.680;5.394;2023-05-10T06:48:28;31.80;;;19.75;;
45522;SDS011;31254;51.680;5.394;2023-05-10T06:50:55;39.78;;;21.02;;
45522;SDS011;31254;51.680;5.394;2023-05-10T06:53:22;35.95;;;20.98;;
45522;SDS011;31254;51.680;5.394;2023-05-10T06:55:52;35.85;;;22.77;;
45522;SDS011;31254;51.680;5.394;2023-05-10T06:58:19;36.15;;;21.52;;
45522;SDS011;31254;51.680;5.394;2023-05-10T07:00:45;39.22;;;23.13;;
45522;SDS011;31254;51.680;5.394;2023-05-10T07:03:13;36.38;;;21.55;;
45522;SDS011;31254;51.680;5.394;2023-05-10T07:05:43;35.25;;;22.15;;
45522;SDS011;31254;51.680;5.394;2023-05-10T07:08:12;31.83;;;20.90;;
45522;SDS011;31254;51.680;5.394;2023-05-10T07:10:39;38.40;;;22.98;;
45522;SDS011;31254;51.680;5.394;2023-05-10T07:13:06;38.42;;;21.40;;
45522;SDS011;31254;51.680;5.394;2023-05-10T07:15:39;31.15;;;19.73;;
45522;SDS011;31254;51.680;5.394;2023-05-10T07:18:06;30.27;;;19.05;;
45522;SDS011;31254;51.680;5.394;2023-05-10T07:20:33;34.75;;;20.42;;
45522;SDS011;31254;51.680;5.394;2023-05-10T07:23:00;32.42;;;19.15;;
45522;SDS011;31254;51.680;5.394;2023-05-10T07:25:27;32.47;;;17.77;;
45522;SDS011;31254;51.680;5.394;2023-05-10T07:27:55;32.15;;;18.50;;
45522;SDS011;31254;51.680;5.394;2023-05-10T07:30:22;29.17;;;17.67;;
45522;SDS011;31254;51.680;5.394;2023-05-10T07:32:50;34.75;;;19.00;;
45522;SDS011;31254;51.680;5.394;2023-05-10T07:35:17;32.42;;;18.92;;
45522;SDS011;31254;51.680;5.394;2023-05-10T07:37:44;33.55;;;18.98;;
45522;SDS011;31254;51.680;5.394;2023-05-10T07:40:11;29.15;;;18.17;;
45522;SDS011;31254;51.680;5.394;2023-05-10T07:42:40;32.90;;;18.58;;
45522;SDS011;31254;51.680;5.394;2023-05-10T07:45:09;29.45;;;18.70;;
45522;SDS011;31254;51.680;5.394;2023-05-10T07:47:36;33.00;;;19.30;;
45522;SDS011;31254;51.680;5.394;2023-05-10T07:50:02;36.28;;;20.73;;
45522;SDS011;31254;51.680;5.394;2023-05-10T07:52:30;38.40;;;21.73;;
45522;SDS011;31254;51.680;5.394;2023-05-10T07:54:56;35.75;;;20.58;;
45522;SDS011;31254;51.680;5.394;2023-05-10T07:57:23;34.03;;;19.50;;
45522;SDS011;31254;51.680;5.394;2023-05-10T07:59:50;40.47;;;23.67;;
45522;SDS011;31254;51.680;5.394;2023-05-10T08:02:16;31.60;;;20.25;;
45522;SDS011;31254;51.680;5.394;2023-05-10T08:04:43;33.58;;;19.88;;
45522;SDS011;31254;51.680;5.394;2023-05-10T08:07:10;32.00;;;17.73;;
45522;SDS011;31254;51.680;5.394;2023-05-10T08:09:39;28.80;;;17.98;;
45522;SDS011;31254;51.680;5.394;2023-05-10T08:12:06;28.70;;;17.80;;
45522;SDS011;31254;51.680;5.394;2023-05-10T08:14:32;32.63;;;19.00;;
45522;SDS011;31254;51.680;5.394;2023-05-10T08:16:59;28.60;;;17.92;;
45522;SDS011;31254;51.680;5.394;2023-05-10T08:19:28;27.55;;;16.55;;
45522;SDS011;31254;51.680;5.394;2023-05-10T08:21:55;28.77;;;17.05;;
45522;SDS011;31254;51.680;5.394;2023-05-10T08:24:22;30.77;;;17.20;;
45522;SDS011;31254;51.680;5.394;2023-05-10T08:26:51;26.02;;;17.58;;
45522;SDS011;31254;51.680;5.394;2023-05-10T08:29:18;29.23;;;17.67;;
45522;SDS011;31254;51.680;5.394;2023-05-10T08:31:45;25.48;;;16.67;;
45522;SDS011;31254;51.680;5.394;2023-05-10T08:34:12;25.38;;;16.60;;
45522;SDS011;31254;51.680;5.394;2023-05-10T08:36:39;32.47;;;18.10;;
45522;SDS011;31254;51.680;5.394;2023-05-10T08:39:07;25.67;;;17.15;;
45522;SDS011;31254;51.680;5.394;2023-05-10T08:41:48;28.50;;;16.77;;
45522;SDS011;31254;51.680;5.394;2023-05-10T08:44:17;27.98;;;15.75;;
45522;SDS011;31254;51.680;5.394;2023-05-10T08:46:45;23.55;;;15.77;;
45522;SDS011;31254;51.680;5.394;2023-05-10T08:49:13;30.08;;;16.92;;
45522;SDS011;31254;51.680;5.394;2023-05-10T08:51:49;26.75;;;15.25;;
45522;SDS011;31254;51.680;5.394;2023-05-10T08:54:18;25.50;;;14.23;;
45522;SDS011;31254;51.680;5.394;2023-05-10T08:56:45;24.95;;;14.35;;
45522;SDS011;31254;51.680;5.394;2023-05-10T08:59:15;23.83;;;13.10;;
45522;SDS011;31254;51.680;5.394;2023-05-10T09:01:43;18.15;;;11.77;;
45522;SDS011;31254;51.680;5.394;2023-05-10T09:04:12;17.13;;;11.93;;
45522;SDS011;31254;51.680;5.394;2023-05-10T09:06:41;19.15;;;11.57;;
45522;SDS011;31254;51.680;5.394;2023-05-10T09:09:08;17.23;;;11.43;;
45522;SDS011;31254;51.680;5.394;2023-05-10T09:11:38;18.30;;;11.70;;
45522;SDS011;31254;51.680;5.394;2023-05-10T09:14:05;16.60;;;11.85;;
45522;SDS011;31254;51.680;5.394;2023-05-10T09:16:35;18.23;;;11.40;;
45522;SDS011;31254;51.680;5.394;2023-05-10T09:19:02;17.20;;;9.77;;
45522;SDS011;31254;51.680;5.394;2023-05-10T09:21:29;14.05;;;8.38;;
45522;SDS011;31254;51.680;5.394;2023-05-10T09:24:02;15.45;;;8.90;;
45522;SDS011;31254;51.680;5.394;2023-05-10T09:26:33;12.15;;;7.65;;
45522;SDS011;31254;51.680;5.394;2023-05-10T09:29:02;12.18;;;7.38;;
45522;SDS011;31254;51.680;5.394;2023-05-10T09:31:48;13.20;;;6.35;;
45522;SDS011;31254;51.680;5.394;2023-05-10T09:34:32;11.07;;;6.80;;
45522;SDS011;31254;51.680;5.394;2023-05-10T09:37:02;13.25;;;7.95;;
45522;SDS011;31254;51.680;5.394;2023-05-10T09:39:34;15.98;;;9.02;;
45522;SDS011;31254;51.680;5.394;2023-05-10T09:42:04;16.02;;;9.50;;
45522;SDS011;31254;51.680;5.394;2023-05-10T09:44:35;14.50;;;9.13;;
45522;SDS011;31254;51.680;5.394;2023-05-10T09:47:04;15.73;;;10.48;;
45522;SDS011;31254;51.680;5.394;2023-05-10T09:49:34;18.20;;;10.82;;
45522;SDS011;31254;51.680;5.394;2023-05-10T09:52:05;18.25;;;10.73;;
45522;SDS011;31254;51.680;5.394;2023-05-10T09:54:33;20.40;;;11.73;;
45522;SDS011;31254;51.680;5.394;2023-05-10T09:57:05;16.27;;;10.73;;
45522;SDS011;31254;51.680;5.394;2023-05-10T09:59:34;17.50;;;11.00;;
45522;SDS011;31254;51.680;5.394;2023-05-10T10:02:03;15.90;;;10.48;;
45522;SDS011;31254;51.680;5.394;2023-05-10T10:04:30;19.10;;;10.73;;
45522;SDS011;31254;51.680;5.394;2023-05-10T10:09:30;17.38;;;10.98;;
45522;SDS011;31254;51.680;5.394;2023-05-10T10:12:01;17.38;;;10.15;;
45522;SDS011;31254;51.680;5.394;2023-05-10T10:14:31;16.13;;;9.95;;
45522;SDS011;31254;51.680;5.394;2023-05-10T10:16:57;16.48;;;8.75;;
45522;SDS011;31254;51.680;5.394;2023-05-10T10:19:29;16.35;;;9.13;;
45522;SDS011;31254;51.680;5.394;2023-05-10T10:21:58;13.40;;;8.43;;
45522;SDS011;31254;51.680;5.394;2023-05-10T10:24:26;16.10;;;10.50;;
45522;SDS011;31254;51.680;5.394;2023-05-10T10:26:53;16.65;;;9.00;;
45522;SDS011;31254;51.680;5.394;2023-05-10T10:29:30;14.00;;;8.43;;
45522;SDS011;31254;51.680;5.394;2023-05-10T10:32:09;13.70;;;8.90;;
45522;SDS011;31254;51.680;5.394;2023-05-10T10:34:48;14.63;;;8.65;;
45522;SDS011;31254;51.680;5.394;2023-05-10T10:37:18;12.73;;;8.07;;
45522;SDS011;31254;51.680;5.394;2023-05-10T10:39:45;16.70;;;9.32;;
45522;SDS011;31254;51.680;5.394;2023-05-10T10:42:14;16.08;;;9.15;;
45522;SDS011;31254;51.680;5.394;2023-05-10T10:45:12;13.98;;;9.50;;
45522;SDS011;31254;51.680;5.394;2023-05-10T10:47:41;15.50;;;9.52;;
45522;SDS011;31254;51.680;5.394;2023-05-10T10:50:13;14.55;;;8.80;;
45522;SDS011;31254;51.680;5.394;2023-05-10T10:52:43;13.07;;;8.90;;
45522;SDS011;31254;51.680;5.394;2023-05-10T10:55:12;12.85;;;8.65;;
45522;SDS011;31254;51.680;5.394;2023-05-10T11:10:37;15.57;;;9.13;;
45522;SDS011;31254;51.680;5.394;2023-05-10T11:13:09;15.02;;;8.10;;
45522;SDS011;31254;51.680;5.394;2023-05-10T11:15:37;13.68;;;8.25;;
45522;SDS011;31254;51.680;5.394;2023-05-10T11:18:23;10.73;;;6.85;;
45522;SDS011;31254;51.680;5.394;2023-05-10T11:20:57;12.63;;;7.15;;
45522;SDS011;31254;51.680;5.394;2023-05-10T11:26:14;12.15;;;7.10;;
45522;SDS011;31254;51.680;5.394;2023-05-10T11:28:44;9.45;;;6.47;;
45522;SDS011;31254;51.680;5.394;2023-05-10T11:31:14;10.15;;;6.93;;
45522;SDS011;31254;51.680;5.394;2023-05-10T11:33:44;12.48;;;8.82;;
45522;SDS011;31254;51.680;5.394;2023-05-10T11:36:15;11.20;;;7.15;;
45522;SDS011;31254;51.680;5.394;2023-05-10T11:38:46;11.15;;;7.47;;
45522;SDS011;31254;51.680;5.394;2023-05-10T11:41:19;10.18;;;7.13;;
45522;SDS011;31254;51.680;5.394;2023-05-10T11:43:50;12.77;;;8.88;;
45522;SDS011;31254;51.680;5.394;2023-05-10T11:46:18;11.98;;;8.32;;
45522;SDS011;31254;51.680;5.394;2023-05-10T11:48:49;11.82;;;7.25;;
45522;SDS011;31254;51.680;5.394;2023-05-10T11:51:21;11.70;;;7.13;;
45522;SDS011;31254;51.680;5.394;2023-05-10T11:53:55;9.90;;;6.68;;
45522;SDS011;31254;51.680;5.394;2023-05-10T11:56:22;8.70;;;6.35;;
45522;SDS011;31254;51.680;5.394;2023-05-10T11:58:56;10.50;;;6.32;;
45522;SDS011;31254;51.680;5.394;2023-05-10T12:01:24;8.90;;;6.93;;
45522;SDS011;31254;51.680;5.394;2023-05-10T12:03:53;11.23;;;6.97;;
45522;SDS011;31254;51.680;5.394;2023-05-10T12:06:21;10.45;;;7.57;;
45522;SDS011;31254;51.680;5.394;2023-05-10T12:08:52;8.30;;;6.53;;
45522;SDS011;31254;51.680;5.394;2023-05-10T12:11:20;11.70;;;7.38;;
45522;SDS011;31254;51.680;5.394;2023-05-10T12:13:51;9.18;;;6.82;;
45522;SDS011;31254;51.680;5.394;2023-05-10T12:16:20;11.43;;;6.97;;
45522;SDS011;31254;51.680;5.394;2023-05-10T12:18:48;10.52;;;8.00;;
45522;SDS011;31254;51.680;5.394;2023-05-10T12:21:19;13.38;;;7.70;;
45522;SDS011;31254;51.680;5.394;2023-05-10T12:23:53;11.57;;;8.27;;
45522;SDS011;31254;51.680;5.394;2023-05-10T12:26:22;11.18;;;8.30;;
45522;SDS011;31254;51.680;5.394;2023-05-10T12:28:50;11.77;;;7.63;;
45522;SDS011;31254;51.680;5.394;2023-05-10T12:31:17;12.50;;;9.02;;
45522;SDS011;31254;51.680;5.394;2023-05-10T12:33:44;13.20;;;8.82;;
45522;SDS011;31254;51.680;5.394;2023-05-10T12:36:12;18.00;;;9.63;;
45522;SDS011;31254;51.680;5.394;2023-05-10T12:38:41;16.70;;;8.77;;
45522;SDS011;31254;51.680;5.394;2023-05-10T12:41:10;12.43;;;7.95;;
45522;SDS011;31254;51.680;5.394;2023-05-10T12:43:41;10.40;;;7.22;;
45522;SDS011;31254;51.680;5.394;2023-05-10T12:46:12;12.25;;;7.13;;
45522;SDS011;31254;51.680;5.394;2023-05-10T12:48:46;11.20;;;6.78;;
45522;SDS011;31254;51.680;5.394;2023-05-10T12:51:25;9.60;;;5.72;;
45522;SDS011;31254;51.680;5.394;2023-05-10T12:53:52;9.73;;;6.25;;
45522;SDS011;31254;51.680;5.394;2023-05-10T12:56:18;9.93;;;5.35;;
45522;SDS011;31254;51.680;5.394;2023-05-10T12:58:45;8.15;;;5.30;;
45522;SDS011;31254;51.680;5.394;2023-05-10T13:01:14;9.10;;;5.95;;
45522;SDS011;31254;51.680;5.394;2023-05-10T13:03:41;9.23;;;6.10;;
45522;SDS011;31254;51.680;5.394;2023-05-10T13:06:10;9.38;;;7.35;;
45522;SDS011;31254;51.680;5.394;2023-05-10T13:08:37;9.60;;;5.90;;
45522;SDS011;31254;51.680;5.394;2023-05-10T13:11:04;8.10;;;4.72;;
45522;SDS011;31254;51.680;5.394;2023-05-10T13:13:33;8.02;;;4.60;;
45522;SDS011;31254;51.680;5.394;2023-05-10T13:15:59;6.68;;;4.47;;
45522;SDS011;31254;51.680;5.394;2023-05-10T13:18:28;7.60;;;4.60;;
45522;SDS011;31254;51.680;5.394;2023-05-10T13:20:55;7.25;;;4.70;;
45522;SDS011;31254;51.680;5.394;2023-05-10T13:23:22;9.27;;;4.07;;
45522;SDS011;31254;51.680;5.394;2023-05-10T13:25:49;7.65;;;4.18;;
45522;SDS011;31254;51.680;5.394;2023-05-10T13:28:16;7.95;;;4.85;;
45522;SDS011;31254;51.680;5.394;2023-05-10T13:30:43;6.35;;;4.85;;
45522;SDS011;31254;51.680;5.394;2023-05-10T13:33:09;10.65;;;5.07;;
45522;SDS011;31254;51.680;5.394;2023-05-10T13:35:36;12.15;;;7.93;;
45522;SDS011;31254;51.680;5.394;2023-05-10T13:38:03;8.00;;;6.05;;
45522;SDS011;31254;51.680;5.394;2023-05-10T13:40:29;10.07;;;7.05;;
45522;SDS011;31254;51.680;5.394;2023-05-10T13:42:56;10.65;;;7.93;;
45522;SDS011;31254;51.680;5.394;2023-05-10T13:45:23;10.30;;;7.50;;
45522;SDS011;31254;51.680;5.394;2023-05-10T13:47:50;8.60;;;7.20;;
45522;SDS011;31254;51.680;5.394;2023-05-10T13:50:17;8.45;;;7.53;;
45522;SDS011;31254;51.680;5.394;2023-05-10T13:52:44;11.90;;;8.10;;
45522;SDS011;31254;51.680;5.394;2023-05-10T13:55:13;8.65;;;7.20;;
45522;SDS011;31254;51.680;5.394;2023-05-10T13:57:39;12.13;;;8.30;;
45522;SDS011;31254;51.680;5.394;2023-05-10T14:00:11;10.75;;;8.20;;
45522;SDS011;31254;51.680;5.394;2023-05-10T14:02:38;10.43;;;7.75;;
45522;SDS011;31254;51.680;5.394;2023-05-10T14:05:06;9.88;;;8.07;;
45522;SDS011;31254;51.680;5.394;2023-05-10T14:07:32;11.20;;;8.18;;
45522;SDS011;31254;51.680;5.394;2023-05-10T14:10:01;10.55;;;8.50;;
45522;SDS011;31254;51.680;5.394;2023-05-10T14:12:29;12.50;;;10.10;;
45522;SDS011;31254;51.680;5.394;2023-05-10T14:14:55;10.95;;;8.30;;
45522;SDS011;31254;51.680;5.394;2023-05-10T14:17:24;11.48;;;10.27;;
45522;SDS011;31254;51.680;5.394;2023-05-10T14:19:51;11.23;;;8.68;;
45522;SDS011;31254;51.680;5.394;2023-05-10T14:22:19;10.48;;;9.38;;
45522;SDS011;31254;51.680;5.394;2023-05-10T14:24:45;11.70;;;9.80;;
45522;SDS011;31254;51.680;5.394;2023-05-10T14:27:13;10.93;;;9.27;;
45522;SDS011;31254;51.680;5.394;2023-05-10T14:29:42;13.93;;;9.82;;
45522;SDS011;31254;51.680;5.394;2023-05-10T14:32:09;15.55;;;10.20;;
45522;SDS011;31254;51.680;5.394;2023-05-10T14:34:36;13.45;;;9.82;;
45522;SDS011;31254;51.680;5.394;2023-05-10T14:37:03;13.68;;;10.23;;
45522;SDS011;31254;51.680;5.394;2023-05-10T14:39:30;12.05;;;9.70;;
45522;SDS011;31254;51.680;5.394;2023-05-10T14:41:57;13.70;;;10.35;;
45522;SDS011;31254;51.680;5.394;2023-05-10T14:44:24;13.90;;;10.10;;
45522;SDS011;31254;51.680;5.394;2023-05-10T14:46:51;14.43;;;10.10;;
45522;SDS011;31254;51.680;5.394;2023-05-10T14:49:18;14.90;;;11.30;;
45522;SDS011;31254;51.680;5.394;2023-05-10T14:51:45;14.98;;;11.27;;
45522;SDS011;31254;51.680;5.394;2023-05-10T14:54:12;15.65;;;12.57;;
45522;SDS011;31254;51.680;5.394;2023-05-10T14:56:38;13.82;;;11.20;;
45522;SDS011;31254;51.680;5.394;2023-05-10T14:59:05;13.68;;;10.68;;
45522;SDS011;31254;51.680;5.394;2023-05-10T15:01:32;15.32;;;12.00;;
45522;SDS011;31254;51.680;5.394;2023-05-10T15:04:01;14.85;;;11.98;;
45522;SDS011;31254;51.680;5.394;2023-05-10T15:06:32;13.73;;;11.15;;
45522;SDS011;31254;51.680;5.394;2023-05-10T15:09:01;15.88;;;12.02;;